Time,TemperatureF,DewpointF,PressureIn,WindDirection,WindDirectionDegrees,WindSpeedMPH,WindSpeedGustMPH,Humidity,HourlyPrecipIn,Conditions,Clouds,dailyrainin,SoftwareType,DateUTC
2013-03-17 00:00:00,34.5,30.7,29.88,West,280,0.0,3.0,86,0.00,OVC,,0.00,WeatherDisplay:10.37,2013-03-17 04:00:00,
2013-03-17 00:01:00,34.5,30.7,29.89,West,280,2.3,2.3,86,0.00,OVC,,0.00,WeatherDisplay:10.37,2013-03-17 04:01:00,
2013-03-17 00:02:00,34.5,30.7,29.89,West,280,3.5,3.5,86,0.00,OVC,,0.00,WeatherDisplay:10.37,2013-03-17 04:02:00,
2013-03-17 00:04:00,34.4,30.6,29.89,West,280,4.0,4.0,86,0.00,OVC,,0.00,WeatherDisplay:10.37,2013-03-17 04:04:00,
2013-03-17 00:09:00,34.4,30.6,29.89,West,280,3.0,3.0,86,0.00,OVC,,0.00,WeatherDisplay:10.37,2013-03-17 04:09:00,
2013-03-17 00:15:00,34.4,30.6,29.89,West,280,3.5,3.5,86,0.00,OVC,,0.00,WeatherDisplay:10.37,2013-03-17 04:15:00,
2013-03-17 00:20:00,34.4,30.6,29.89,West,280,1.1,1.1,86,0.00,OVC,,0.00,WeatherDisplay:10.37,2013-03-17 04:20:00,
2013-03-17 00:25:00,34.4,30.6,29.89,West,280,3.5,3.5,86,0.00,OVC,,0.00,WeatherDisplay:10.37,2013-03-17 04:25:00,
2013-03-17 00:31:00,34.4,30.6,29.89,West,280,2.3,2.3,86,0.00,OVC,,0.00,WeatherDisplay:10.37,2013-03-17 04:31:00,
2013-03-17 00:36:00,34.4,30.6,29.89,West,280,3.0,3.1,86,0.00,OVC,,0.00,WeatherDisplay:10.37,2013-03-17 04:36:00,
2013-03-17 00:41:00,34.5,30.7,29.89,West,280,3.5,3.5,86,0.00,OVC,,0.00,WeatherDisplay:10.37,2013-03-17 04:41:00,
2013-03-17 00:46:00,34.4,30.6,29.89,West,280,3.5,3.5,86,0.00,OVC,,0.00,WeatherDisplay:10.37,2013-03-17 04:46:00,
2013-03-17 00:52:00,34.4,30.6,29.89,West,280,3.5,3.5,86,0.00,OVC,,0.00,WeatherDisplay:10.37,2013-03-17 04:52:00,
2013-03-17 00:57:00,34.3,30.3,29.90,West,280,3.5,3.5,85,0.00,OVC,,0.00,WeatherDisplay:10.37,2013-03-17 04:57:00,
2013-03-17 01:02:00,34.4,30.6,29.90,West,280,0.0,0.0,86,0.00,OVC,,0.00,WeatherDisplay:10.37,2013-03-17 05:02:00,
2013-03-17 01:07:00,34.4,30.4,29.90,West,280,3.5,3.5,85,0.00,OVC,,0.00,WeatherDisplay:10.37,2013-03-17 05:07:00,
2013-03-17 01:12:00,34.3,30.3,29.90,West,280,3.5,3.5,85,0.00,OVC,,0.00,WeatherDisplay:10.37,2013-03-17 05:12:00,
2013-03-17 01:17:00,34.3,30.3,29.90,West,280,2.3,2.3,85,0.00,OVC,,0.00,WeatherDisplay:10.37,2013-03-17 05:17:00,
2013-03-17 01:22:00,34.3,30.3,29.90,West,280,1.1,1.1,85,0.00,OVC,,0.00,WeatherDisplay:10.37,2013-03-17 05:22:00,
2013-03-17 01:28:00,34.3,30.0,29.90,West,280,3.5,3.5,84,0.00,OVC,,0.00,WeatherDisplay:10.37,2013-03-17 05:28:00,
2013-03-17 01:33:00,34.2,29.6,29.90,West,280,0.0,0.0,83,0.00,OVC,,0.00,WeatherDisplay:10.37,2013-03-17 05:33:00,
2013-03-17 01:38:00,34.1,29.5,29.90,West,280,2.3,2.3,83,0.00,OVC,,0.00,WeatherDisplay:10.37,2013-03-17 05:38:00,
2013-03-17 01:43:00,34.1,29.5,29.90,West,280,0.0,0.0,83,0.00,OVC,,0.00,WeatherDisplay:10.37,2013-03-17 05:43:00,
2013-03-17 01:48:00,34.1,29.5,29.91,West,280,0.0,0.0,83,0.00,OVC,,0.00,WeatherDisplay:10.37,2013-03-17 05:48:00,
2013-03-17 01:53:00,33.9,29.3,29.90,West,280,0.0,0.0,83,0.00,OVC,,0.00,WeatherDisplay:10.37,2013-03-17 05:53:00,
2013-03-17 01:58:00,33.8,29.2,29.91,West,280,1.1,0.0,83,0.00,OVC,,0.00,WeatherDisplay:10.37,2013-03-17 05:58:00,
2013-03-17 02:04:00,33.5,28.9,29.91,West,280,0.0,0.0,83,0.00,OVC,,0.00,WeatherDisplay:10.37,2013-03-17 06:04:00,
2013-03-17 02:09:00,33.3,28.7,29.91,West,280,0.0,0.0,83,0.00,OVC,,0.00,WeatherDisplay:10.37,2013-03-17 06:09:00,
2013-03-17 02:14:00,33.0,28.4,29.91,West,280,0.0,0.0,83,0.00,OVC,,0.00,WeatherDisplay:10.37,2013-03-17 06:14:00,
2013-03-17 02:19:00,32.9,28.3,29.90,West,280,0.0,0.1,83,0.00,OVC,,0.00,WeatherDisplay:10.37,2013-03-17 06:19:00,
2013-03-17 02:24:00,32.7,28.4,29.90,West,280,0.0,0.0,84,0.00,OVC,,0.00,WeatherDisplay:10.37,2013-03-17 06:24:00,
2013-03-17 02:30:00,32.5,28.2,29.90,West,280,0.0,0.1,84,0.00,OVC,,0.00,WeatherDisplay:10.37,2013-03-17 06:30:00,
2013-03-17 02:35:00,32.4,28.4,29.91,West,280,1.1,0.0,85,0.00,OVC,,0.00,WeatherDisplay:10.37,2013-03-17 06:35:00,
2013-03-17 02:40:00,32.2,28.2,29.90,West,280,0.0,0.0,85,0.00,OVC,,0.00,WeatherDisplay:10.37,2013-03-17 06:40:00,
2013-03-17 02:45:00,32.1,28.4,29.90,West,280,0.0,0.0,86,0.00,OVC,,0.00,WeatherDisplay:10.37,2013-03-17 06:45:00,
2013-03-17 02:50:00,32.1,28.4,29.91,West,280,0.0,0.0,86,0.00,OVC,,0.00,WeatherDisplay:10.37,2013-03-17 06:50:00,
2013-03-17 02:56:00,32.0,28.3,29.91,West,280,2.3,2.3,86,0.00,OVC,,0.00,WeatherDisplay:10.37,2013-03-17 06:56:00,
2013-03-17 03:01:00,31.8,28.4,29.91,West,280,2.3,2.3,87,0.00,CLR,,0.00,WeatherDisplay:10.37,2013-03-17 07:01:00,
2013-03-17 03:06:00,31.7,28.3,29.91,West,280,2.3,2.3,87,0.00,CLR,,0.00,WeatherDisplay:10.37,2013-03-17 07:06:00,
2013-03-17 03:11:00,31.6,28.5,29.91,West,280,1.1,1.1,88,0.00,CLR,,0.00,WeatherDisplay:10.37,2013-03-17 07:11:00,
2013-03-17 03:16:00,31.5,28.1,29.91,West,280,2.3,2.3,87,0.00,CLR,,0.00,WeatherDisplay:10.37,2013-03-17 07:16:00,
2013-03-17 03:22:00,31.5,27.8,29.91,West,280,1.1,1.1,86,0.00,CLR,,0.00,WeatherDisplay:10.37,2013-03-17 07:22:00,
2013-03-17 03:27:00,31.6,27.0,29.91,WNW,300,4.0,4.0,83,0.00,CLR,,0.00,WeatherDisplay:10.37,2013-03-17 07:27:00,
2013-03-17 03:32:00,31.7,26.5,29.92,NW,313,6.0,6.0,81,0.00,CLR,,0.00,WeatherDisplay:10.37,2013-03-17 07:32:00,
2013-03-17 03:37:00,31.8,25.7,29.92,WNW,291,6.0,6.0,78,0.00,CLR,,0.00,WeatherDisplay:10.37,2013-03-17 07:37:00,
2013-03-17 03:42:00,31.9,25.2,29.92,NW,304,6.9,6.9,76,0.00,CLR,,0.00,WeatherDisplay:10.37,2013-03-17 07:42:00,
2013-03-17 03:47:00,31.9,24.6,29.92,WNW,294,6.9,6.9,74,0.00,CLR,,0.00,WeatherDisplay:10.37,2013-03-17 07:47:00,
2013-03-17 03:52:00,31.8,24.8,29.92,NW,314,3.5,3.5,75,0.00,CLR,,0.00,WeatherDisplay:10.37,2013-03-17 07:52:00,
2013-03-17 03:58:00,31.8,25.4,29.92,WNW,303,5.8,5.8,77,0.00,CLR,,0.00,WeatherDisplay:10.37,2013-03-17 07:58:00,
2013-03-17 04:03:00,31.7,25.3,29.92,NW,315,5.8,5.8,77,0.00,CLR,,0.00,WeatherDisplay:10.37,2013-03-17 08:03:00,
2013-03-17 04:08:00,31.6,24.9,29.92,NW,325,6.9,6.9,76,0.00,CLR,,0.00,WeatherDisplay:10.37,2013-03-17 08:08:00,
2013-03-17 04:13:00,31.6,24.6,29.92,NNW,331,6.9,6.9,75,0.00,CLR,,0.00,WeatherDisplay:10.37,2013-03-17 08:13:00,
2013-03-17 04:18:00,31.6,24.6,29.93,WNW,296,3.5,3.5,75,0.00,CLR,,0.00,WeatherDisplay:10.37,2013-03-17 08:18:00,
2013-03-17 04:23:00,31.6,23.9,29.94,NW,315,5.0,5.0,73,0.00,CLR,,0.00,WeatherDisplay:10.37,2013-03-17 08:23:00,
2013-03-17 04:29:00,31.5,23.8,29.94,WNW,302,3.5,3.5,73,0.00,CLR,,0.00,WeatherDisplay:10.37,2013-03-17 08:29:00,
2013-03-17 04:34:00,31.4,23.4,29.94,WNW,302,2.3,2.3,72,0.00,CLR,,0.00,WeatherDisplay:10.37,2013-03-17 08:34:00,
2013-03-17 04:39:00,31.4,23.4,29.94,WNW,297,3.5,3.5,72,0.00,CLR,,0.00,WeatherDisplay:10.37,2013-03-17 08:39:00,
2013-03-17 04:44:00,31.4,23.1,29.94,NW,322,6.9,6.9,71,0.00,CLR,,0.00,WeatherDisplay:10.37,2013-03-17 08:44:00,
2013-03-17 04:49:00,31.4,22.7,29.94,NW,315,3.5,3.5,70,0.00,CLR,,0.00,WeatherDisplay:10.37,2013-03-17 08:49:00,
2013-03-17 04:54:00,31.3,22.6,29.95,WNW,284,3.5,3.5,70,0.00,CLR,,0.00,WeatherDisplay:10.37,2013-03-17 08:54:00,
2013-03-17 04:59:00,31.3,22.6,29.95,West,277,0.0,0.0,70,0.00,CLR,,0.00,WeatherDisplay:10.37,2013-03-17 08:59:00,
2013-03-17 05:04:00,31.1,22.1,29.95,West,279,4.0,4.0,69,0.00,CLR,,0.00,WeatherDisplay:10.37,2013-03-17 09:04:00,
2013-03-17 05:09:00,31.1,21.8,29.95,WNW,302,6.9,6.9,68,0.00,CLR,,0.00,WeatherDisplay:10.37,2013-03-17 09:09:00,
2013-03-17 05:15:00,31.0,21.3,29.96,WNW,296,6.0,8.0,67,0.00,CLR,,0.00,WeatherDisplay:10.37,2013-03-17 09:15:00,
2013-03-17 05:20:00,31.0,21.0,29.96,WNW,295,4.6,4.6,66,0.00,CLR,,0.00,WeatherDisplay:10.37,2013-03-17 09:20:00,
2013-03-17 05:25:00,30.9,20.9,29.96,WNW,298,3.5,3.5,66,0.00,CLR,,0.00,WeatherDisplay:10.37,2013-03-17 09:25:00,
2013-03-17 05:30:00,30.9,20.5,29.97,WNW,296,6.9,6.9,65,0.00,CLR,,0.00,WeatherDisplay:10.37,2013-03-17 09:30:00,
2013-03-17 05:36:00,30.8,20.4,29.97,NW,311,3.5,3.5,65,0.00,CLR,,0.00,WeatherDisplay:10.37,2013-03-17 09:36:00,
2013-03-17 05:41:00,30.7,20.3,29.97,NW,313,4.6,4.6,65,0.00,CLR,,0.00,WeatherDisplay:10.37,2013-03-17 09:41:00,
2013-03-17 05:47:00,30.6,19.9,29.97,West,280,3.5,3.5,64,0.00,CLR,,0.00,WeatherDisplay:10.37,2013-03-17 09:47:00,
2013-03-17 05:52:00,30.6,19.9,29.97,West,271,5.0,5.0,64,0.00,CLR,,0.00,WeatherDisplay:10.37,2013-03-17 09:52:00,
2013-03-17 05:57:00,30.5,19.4,29.98,WNW,290,6.9,6.9,63,0.00,CLR,,0.00,WeatherDisplay:10.37,2013-03-17 09:57:00,
2013-03-17 06:02:00,30.4,18.9,29.98,West,274,5.8,5.8,62,0.00,CLR,,0.00,WeatherDisplay:10.37,2013-03-17 10:02:00,
2013-03-17 06:08:00,30.4,19.3,29.98,WNW,288,3.5,3.5,63,0.00,CLR,,0.00,WeatherDisplay:10.37,2013-03-17 10:08:00,
2013-03-17 06:13:00,30.3,18.8,29.99,NNW,333,6.0,6.0,62,0.00,CLR,,0.00,WeatherDisplay:10.37,2013-03-17 10:13:00,
2013-03-17 06:18:00,30.2,18.4,29.99,WNW,290,4.6,4.6,61,0.00,CLR,,0.00,WeatherDisplay:10.37,2013-03-17 10:18:00,
2013-03-17 06:23:00,30.1,17.9,29.99,WNW,290,8.1,8.1,60,0.00,CLR,,0.00,WeatherDisplay:10.37,2013-03-17 10:23:00,
2013-03-17 06:28:00,30.0,17.8,29.99,WNW,286,5.8,5.8,60,0.00,CLR,,0.00,WeatherDisplay:10.37,2013-03-17 10:28:00,
2013-03-17 06:33:00,30.0,17.8,30.00,NW,315,4.0,4.0,60,0.00,CLR,,0.00,WeatherDisplay:10.37,2013-03-17 10:33:00,
2013-03-17 06:39:00,29.9,18.1,30.00,WNW,285,6.9,6.9,61,0.00,CLR,,0.00,WeatherDisplay:10.37,2013-03-17 10:39:00,
2013-03-17 06:44:00,29.8,18.0,30.00,WNW,296,3.5,3.5,61,0.00,CLR,,0.00,WeatherDisplay:10.37,2013-03-17 10:44:00,
2013-03-17 06:49:00,29.7,17.9,30.00,WNW,291,5.8,5.8,61,0.00,CLR,,0.00,WeatherDisplay:10.37,2013-03-17 10:49:00,
2013-03-17 06:54:00,29.7,18.3,30.00,WNW,298,4.0,4.0,62,0.00,CLR,,0.00,WeatherDisplay:10.37,2013-03-17 10:54:00,
2013-03-17 06:59:00,29.6,18.2,30.00,NW,309,4.0,4.0,62,0.00,CLR,,0.00,WeatherDisplay:10.37,2013-03-17 10:59:00,
2013-03-17 07:04:00,29.5,17.7,30.00,NW,325,6.9,6.9,61,0.00,FEW,,0.00,WeatherDisplay:10.37,2013-03-17 11:04:00,
2013-03-17 07:10:00,29.4,17.6,30.01,NW,306,5.8,5.8,61,0.00,FEW,,0.00,WeatherDisplay:10.37,2013-03-17 11:10:00,
2013-03-17 07:15:00,29.4,17.2,30.01,NW,304,5.0,9.0,60,0.00,FEW,,0.00,WeatherDisplay:10.37,2013-03-17 11:15:00,
2013-03-17 07:20:00,29.5,17.3,30.01,West,273,6.9,6.9,60,0.00,FEW,,0.00,WeatherDisplay:10.37,2013-03-17 11:20:00,
2013-03-17 07:25:00,29.5,17.3,30.01,WNW,302,6.0,6.0,60,0.00,FEW,,0.00,WeatherDisplay:10.37,2013-03-17 11:25:00,
2013-03-17 07:30:00,29.6,17.0,30.02,NW,324,11.0,11.0,59,0.00,FEW,,0.00,WeatherDisplay:10.37,2013-03-17 11:30:00,
2013-03-17 07:35:00,29.6,16.6,30.02,NW,309,11.5,11.5,58,0.00,FEW,,0.00,WeatherDisplay:10.37,2013-03-17 11:35:00,
2013-03-17 07:40:00,29.6,16.6,30.02,WNW,288,11.5,11.5,58,0.00,FEW,,0.00,WeatherDisplay:10.37,2013-03-17 11:40:00,
2013-03-17 07:46:00,29.7,16.7,30.03,NW,317,9.2,9.2,58,0.00,FEW,,0.00,WeatherDisplay:10.37,2013-03-17 11:46:00,
2013-03-17 07:51:00,29.8,17.2,30.04,NW,306,6.0,6.0,59,0.00,FEW,,0.00,WeatherDisplay:10.37,2013-03-17 11:51:00,
2013-03-17 07:56:00,30.0,17.4,30.04,NW,315,9.2,9.2,59,0.00,FEW,,0.00,WeatherDisplay:10.37,2013-03-17 11:56:00,
2013-03-17 08:01:00,29.9,16.5,30.04,NW,326,12.7,12.7,57,0.00,FEW,,0.00,WeatherDisplay:10.37,2013-03-17 12:01:00,
2013-03-17 08:06:00,29.8,16.0,30.04,NW,317,17.3,17.3,56,0.00,FEW,,0.00,WeatherDisplay:10.37,2013-03-17 12:06:00,
2013-03-17 08:11:00,29.8,15.6,30.04,WNW,294,11.5,11.5,55,0.00,FEW,,0.00,WeatherDisplay:10.37,2013-03-17 12:11:00,
2013-03-17 08:16:00,29.8,15.2,30.05,WNW,302,8.1,8.1,54,0.00,FEW,,0.00,WeatherDisplay:10.37,2013-03-17 12:16:00,
2013-03-17 08:21:00,29.8,15.2,30.05,NW,318,15.0,15.0,54,0.00,FEW,,0.00,WeatherDisplay:10.37,2013-03-17 12:21:00,
2013-03-17 08:26:00,29.7,14.6,30.05,WNW,302,15.0,15.0,53,0.00,FEW,,0.00,WeatherDisplay:10.37,2013-03-17 12:26:00,
2013-03-17 08:31:00,29.7,14.2,30.05,NNW,329,11.5,11.5,52,0.00,FEW,,0.00,WeatherDisplay:10.37,2013-03-17 12:31:00,
2013-03-17 08:37:00,29.8,14.7,30.05,NNW,337,9.0,9.0,53,0.00,FEW,,0.00,WeatherDisplay:10.37,2013-03-17 12:37:00,
2013-03-17 08:42:00,30.1,15.0,30.06,WNW,303,12.7,12.7,53,0.00,FEW,,0.00,WeatherDisplay:10.37,2013-03-17 12:42:00,
2013-03-17 08:47:00,30.1,14.6,30.06,NW,319,14.0,14.0,52,0.00,FEW,,0.00,WeatherDisplay:10.37,2013-03-17 12:47:00,
2013-03-17 08:52:00,30.1,14.6,30.06,WNW,291,11.5,11.5,52,0.00,FEW,,0.00,WeatherDisplay:10.37,2013-03-17 12:52:00,
2013-03-17 08:58:00,30.0,13.6,30.06,NW,315,13.0,13.0,50,0.00,FEW,,0.00,WeatherDisplay:10.37,2013-03-17 12:58:00,
2013-03-17 09:03:00,29.9,14.4,30.06,NNW,337,18.0,18.0,52,0.00,FEW,,0.00,WeatherDisplay:10.37,2013-03-17 13:03:00,
2013-03-17 09:08:00,29.7,13.3,30.06,WNW,286,12.7,12.7,50,0.00,FEW,,0.00,WeatherDisplay:10.37,2013-03-17 13:08:00,
2013-03-17 09:13:00,29.7,12.8,30.06,NNW,336,17.3,17.3,49,0.00,FEW,,0.00,WeatherDisplay:10.37,2013-03-17 13:13:00,
2013-03-17 09:18:00,29.7,12.8,30.07,NW,307,18.4,18.4,49,0.00,FEW,,0.00,WeatherDisplay:10.37,2013-03-17 13:18:00,
2013-03-17 09:24:00,30.1,14.1,30.07,NW,315,15.0,15.0,51,0.00,FEW,,0.00,WeatherDisplay:10.37,2013-03-17 13:24:00,
2013-03-17 09:29:00,30.2,14.2,30.07,NW,309,16.0,16.0,51,0.00,FEW,,0.00,WeatherDisplay:10.37,2013-03-17 13:29:00,
2013-03-17 09:34:00,30.3,14.3,30.07,NW,324,13.8,13.8,51,0.00,FEW,,0.00,WeatherDisplay:10.37,2013-03-17 13:34:00,
2013-03-17 09:39:00,30.6,14.6,30.07,WNW,302,11.5,11.5,51,0.00,FEW,,0.00,WeatherDisplay:10.37,2013-03-17 13:39:00,
2013-03-17 09:44:00,30.8,14.3,30.07,North,360,13.8,13.8,50,0.00,FEW,,0.00,WeatherDisplay:10.37,2013-03-17 13:44:00,
2013-03-17 09:49:00,30.8,14.8,30.07,NNW,329,11.5,11.5,51,0.00,FEW,,0.00,WeatherDisplay:10.37,2013-03-17 13:49:00,
2013-03-17 09:55:00,31.2,15.6,30.08,NW,319,16.1,16.1,52,0.00,FEW,,0.00,WeatherDisplay:10.37,2013-03-17 13:55:00,
2013-03-17 10:00:00,31.2,15.2,30.08,NW,319,13.8,13.8,51,0.00,FEW,,0.00,WeatherDisplay:10.37,2013-03-17 14:00:00,
2013-03-17 10:05:00,31.4,15.3,30.08,West,272,15.0,15.0,51,0.00,BKN,,0.00,WeatherDisplay:10.37,2013-03-17 14:05:00,
2013-03-17 10:10:00,31.6,15.5,30.08,NW,324,11.5,11.5,51,0.00,BKN,,0.00,WeatherDisplay:10.37,2013-03-17 14:10:00,
2013-03-17 10:15:00,31.6,15.5,30.08,WNW,293,12.7,12.7,51,0.00,BKN,,0.00,WeatherDisplay:10.37,2013-03-17 14:15:00,
2013-03-17 10:20:00,31.7,15.6,30.08,NW,322,17.3,17.3,51,0.00,BKN,,0.00,WeatherDisplay:10.37,2013-03-17 14:20:00,
2013-03-17 10:25:00,31.6,16.8,30.09,WNW,301,12.7,12.7,54,0.00,BKN,,0.00,WeatherDisplay:10.37,2013-03-17 14:25:00,
2013-03-17 10:31:00,31.5,15.4,30.09,NW,315,18.4,18.4,51,0.00,BKN,,0.00,WeatherDisplay:10.37,2013-03-17 14:31:00,
2013-03-17 10:36:00,31.8,17.0,30.09,WNW,287,12.0,12.0,54,0.00,BKN,,0.00,WeatherDisplay:10.37,2013-03-17 14:36:00,
2013-03-17 10:41:00,31.7,16.1,30.09,North,350,12.7,12.7,52,0.00,BKN,,0.00,WeatherDisplay:10.37,2013-03-17 14:41:00,
2013-03-17 10:47:00,31.8,15.7,30.09,NW,304,13.8,13.8,51,0.00,BKN,,0.00,WeatherDisplay:10.37,2013-03-17 14:47:00,
2013-03-17 10:52:00,32.1,16.0,30.09,West,271,12.7,12.7,51,0.00,BKN,,0.00,WeatherDisplay:10.37,2013-03-17 14:52:00,
2013-03-17 10:57:00,32.2,16.1,30.09,NW,318,8.0,8.0,51,0.00,BKN,,0.00,WeatherDisplay:10.37,2013-03-17 14:57:00,
2013-03-17 11:02:00,32.3,16.2,30.09,NW,317,15.0,15.0,51,0.00,OVC,,0.00,WeatherDisplay:10.37,2013-03-17 15:02:00,
2013-03-17 11:07:00,32.5,16.4,30.08,NW,323,10.4,10.4,51,0.00,OVC,,0.00,WeatherDisplay:10.37,2013-03-17 15:07:00,
2013-03-17 11:13:00,32.6,16.0,30.08,NW,317,11.5,11.5,50,0.00,OVC,,0.00,WeatherDisplay:10.37,2013-03-17 15:13:00,
2013-03-17 11:18:00,32.6,16.0,30.08,NW,309,16.1,16.1,50,0.00,OVC,,0.00,WeatherDisplay:10.37,2013-03-17 15:18:00,
2013-03-17 11:23:00,33.1,16.5,30.08,WNW,290,11.5,11.5,50,0.00,OVC,,0.00,WeatherDisplay:10.37,2013-03-17 15:23:00,
2013-03-17 11:28:00,33.4,15.8,30.08,WNW,294,9.2,9.2,48,0.00,OVC,,0.00,WeatherDisplay:10.37,2013-03-17 15:28:00,
2013-03-17 11:33:00,33.4,15.3,30.09,WNW,298,11.5,11.5,47,0.00,OVC,,0.00,WeatherDisplay:10.37,2013-03-17 15:33:00,
2013-03-17 11:38:00,33.4,15.8,30.09,West,278,12.7,12.7,48,0.00,OVC,,0.00,WeatherDisplay:10.37,2013-03-17 15:38:00,
2013-03-17 11:43:00,33.5,15.4,30.08,WNW,302,23.0,23.0,47,0.00,OVC,,0.00,WeatherDisplay:10.37,2013-03-17 15:43:00,
2013-03-17 11:49:00,33.5,15.4,30.08,WNW,300,16.1,16.1,47,0.00,OVC,,0.00,WeatherDisplay:10.37,2013-03-17 15:49:00,
2013-03-17 11:54:00,33.5,15.4,30.08,WNW,300,13.0,13.0,47,0.00,OVC,,0.00,WeatherDisplay:10.37,2013-03-17 15:54:00,
2013-03-17 11:59:00,33.9,15.8,30.08,NW,321,12.7,12.7,47,0.00,OVC,,0.00,WeatherDisplay:10.37,2013-03-17 15:59:00,
2013-03-17 12:04:00,34.3,16.1,30.08,WNW,292,17.0,17.0,47,0.00,BKN,,0.00,WeatherDisplay:10.37,2013-03-17 16:04:00,
2013-03-17 12:10:00,34.5,14.8,30.07,NW,326,13.8,13.8,44,0.00,BKN,,0.00,WeatherDisplay:10.37,2013-03-17 16:10:00,
2013-03-17 12:15:00,34.8,14.5,30.07,NW,307,8.0,27.0,43,0.00,BKN,,0.00,WeatherDisplay:10.37,2013-03-17 16:15:00,
2013-03-17 12:20:00,35.3,15.0,30.07,WNW,292,18.4,18.4,43,0.00,BKN,,0.00,WeatherDisplay:10.37,2013-03-17 16:20:00,
2013-03-17 12:25:00,35.3,15.0,30.07,West,271,20.7,20.7,43,0.00,BKN,,0.00,WeatherDisplay:10.37,2013-03-17 16:25:00,
2013-03-17 12:30:00,35.5,15.2,30.07,West,278,11.5,11.5,43,0.00,BKN,,0.00,WeatherDisplay:10.37,2013-03-17 16:30:00,
2013-03-17 12:35:00,35.7,14.8,30.07,NNW,333,13.8,13.8,42,0.00,BKN,,0.00,WeatherDisplay:10.37,2013-03-17 16:35:00,
2013-03-17 12:40:00,35.7,15.9,30.07,NW,315,17.3,17.3,44,0.00,BKN,,0.00,WeatherDisplay:10.37,2013-03-17 16:40:00,
2013-03-17 12:46:00,35.9,14.5,30.07,West,277,16.1,16.1,41,0.00,BKN,,0.00,WeatherDisplay:10.37,2013-03-17 16:46:00,
2013-03-17 12:51:00,36.1,14.1,30.06,NW,320,17.3,17.3,40,0.00,BKN,,0.00,WeatherDisplay:10.37,2013-03-17 16:51:00,
2013-03-17 12:56:00,36.0,14.5,30.07,NW,312,19.6,19.6,41,0.00,BKN,,0.00,WeatherDisplay:10.37,2013-03-17 16:56:00,
2013-03-17 13:01:00,35.9,13.3,30.07,NW,316,21.0,21.0,39,0.00,CLR,,0.00,WeatherDisplay:10.37,2013-03-17 17:01:00,
2013-03-17 13:07:00,35.9,12.7,30.07,WNW,301,16.1,16.1,38,0.00,CLR,,0.00,WeatherDisplay:10.37,2013-03-17 17:07:00,
2013-03-17 13:12:00,35.9,12.7,30.07,West,277,16.1,16.1,38,0.00,CLR,,0.00,WeatherDisplay:10.37,2013-03-17 17:12:00,
2013-03-17 13:17:00,35.8,12.6,30.07,WNW,285,15.0,15.0,38,0.00,CLR,,0.00,WeatherDisplay:10.37,2013-03-17 17:17:00,
2013-03-17 13:22:00,36.1,12.3,30.06,NW,316,18.4,18.4,37,0.00,CLR,,0.00,WeatherDisplay:10.37,2013-03-17 17:22:00,
2013-03-17 13:27:00,36.1,13.5,30.07,NW,325,18.4,18.4,39,0.00,CLR,,0.00,WeatherDisplay:10.37,2013-03-17 17:27:00,
2013-03-17 13:33:00,36.0,12.8,30.07,NW,324,15.0,15.0,38,0.00,CLR,,0.00,WeatherDisplay:10.37,2013-03-17 17:33:00,
2013-03-17 13:38:00,36.0,14.5,30.07,NW,306,15.0,15.0,41,0.00,CLR,,0.00,WeatherDisplay:10.37,2013-03-17 17:38:00,
2013-03-17 13:43:00,36.5,13.3,30.07,WNW,282,15.0,15.0,38,0.00,CLR,,0.00,WeatherDisplay:10.37,2013-03-17 17:43:00,
2013-03-17 13:48:00,36.6,13.9,30.07,WNW,303,17.3,17.3,39,0.00,CLR,,0.00,WeatherDisplay:10.37,2013-03-17 17:48:00,
2013-03-17 13:53:00,36.7,12.8,30.07,West,275,13.8,13.8,37,0.00,CLR,,0.00,WeatherDisplay:10.37,2013-03-17 17:53:00,
2013-03-17 13:58:00,36.9,12.4,30.07,West,268,16.1,16.1,36,0.00,CLR,,0.00,WeatherDisplay:10.37,2013-03-17 17:58:00,
2013-03-17 14:03:00,37.1,11.9,30.07,WNW,300,20.7,20.7,35,0.00,BKN,,0.00,WeatherDisplay:10.37,2013-03-17 18:03:00,
2013-03-17 14:08:00,36.9,11.8,30.07,NNW,348,17.3,17.3,35,0.00,BKN,,0.00,WeatherDisplay:10.37,2013-03-17 18:08:00,
2013-03-17 14:14:00,37.3,11.5,30.07,NW,313,13.8,13.8,34,0.00,BKN,,0.00,WeatherDisplay:10.37,2013-03-17 18:14:00,
2013-03-17 14:19:00,37.2,11.4,30.07,NNW,327,18.4,18.4,34,0.00,BKN,,0.00,WeatherDisplay:10.37,2013-03-17 18:19:00,
2013-03-17 14:24:00,36.9,10.4,30.07,NW,323,18.4,18.4,33,0.00,BKN,,0.00,WeatherDisplay:10.37,2013-03-17 18:24:00,
2013-03-17 14:29:00,37.2,10.7,30.08,West,261,17.3,17.3,33,0.00,BKN,,0.00,WeatherDisplay:10.37,2013-03-17 18:29:00,
2013-03-17 14:34:00,37.1,10.6,30.08,WNW,300,12.7,12.7,33,0.00,BKN,,0.00,WeatherDisplay:10.37,2013-03-17 18:34:00,
2013-03-17 14:40:00,37.0,11.2,30.08,NW,312,12.7,12.7,34,0.00,BKN,,0.00,WeatherDisplay:10.37,2013-03-17 18:40:00,
2013-03-17 14:45:00,36.9,10.4,30.08,WNW,302,10.0,16.0,33,0.00,BKN,,0.00,WeatherDisplay:10.37,2013-03-17 18:45:00,
2013-03-17 14:50:00,37.1,9.9,30.08,WNW,294,17.3,17.3,32,0.00,BKN,,0.00,WeatherDisplay:10.37,2013-03-17 18:50:00,
2013-03-17 14:55:00,36.9,9.7,30.08,West,277,17.3,17.3,32,0.00,BKN,,0.00,WeatherDisplay:10.37,2013-03-17 18:55:00,
2013-03-17 15:00:00,37.4,11.5,30.08,WNW,295,6.9,6.9,34,0.00,BKN,,0.00,WeatherDisplay:10.37,2013-03-17 19:00:00,
2013-03-17 15:05:00,37.5,10.3,30.08,NNW,328,15.0,15.0,32,0.00,BKN,,0.00,WeatherDisplay:10.37,2013-03-17 19:05:00,
2013-03-17 15:10:00,37.0,11.2,30.09,NNW,335,19.6,19.6,34,0.00,BKN,,0.00,WeatherDisplay:10.37,2013-03-17 19:10:00,
2013-03-17 15:15:00,36.7,11.6,30.09,NW,317,16.1,16.1,35,0.00,BKN,,0.00,WeatherDisplay:10.37,2013-03-17 19:15:00,
2013-03-17 15:21:00,36.8,11.7,30.09,NW,318,20.7,20.7,35,0.00,BKN,,0.00,WeatherDisplay:10.37,2013-03-17 19:21:00,
2013-03-17 15:26:00,36.9,9.7,30.09,WNW,302,19.6,19.6,32,0.00,BKN,,0.00,WeatherDisplay:10.37,2013-03-17 19:26:00,
2013-03-17 15:32:00,37.1,9.2,30.09,WNW,295,19.6,19.6,31,0.00,BKN,,0.00,WeatherDisplay:10.37,2013-03-17 19:32:00,
2013-03-17 15:37:00,36.9,9.0,30.09,WNW,284,15.0,15.0,31,0.00,BKN,,0.00,WeatherDisplay:10.37,2013-03-17 19:37:00,
2013-03-17 15:42:00,37.0,8.4,30.09,West,278,15.0,15.0,30,0.00,BKN,,0.00,WeatherDisplay:10.37,2013-03-17 19:42:00,
2013-03-17 15:48:00,36.9,8.3,30.09,NW,306,15.0,15.0,30,0.00,BKN,,0.00,WeatherDisplay:10.37,2013-03-17 19:48:00,
2013-03-17 15:53:00,36.8,8.9,30.10,WNW,298,20.7,20.7,31,0.00,BKN,,0.00,WeatherDisplay:10.37,2013-03-17 19:53:00,
2013-03-17 15:58:00,36.7,10.3,30.10,NW,320,17.3,17.3,33,0.00,BKN,,0.00,WeatherDisplay:10.37,2013-03-17 19:58:00,
2013-03-17 16:03:00,36.7,10.9,30.10,NW,319,12.7,12.7,34,0.00,OVC,,0.00,WeatherDisplay:10.37,2013-03-17 20:03:00,
2013-03-17 16:09:00,36.9,9.7,30.10,NNW,331,18.4,18.4,32,0.00,OVC,,0.00,WeatherDisplay:10.37,2013-03-17 20:09:00,
2013-03-17 16:14:00,36.7,10.3,30.10,NW,317,18.4,18.4,33,0.00,OVC,,0.00,WeatherDisplay:10.37,2013-03-17 20:14:00,
2013-03-17 16:19:00,36.9,10.4,30.10,NNW,343,19.6,19.6,33,0.00,OVC,,0.00,WeatherDisplay:10.37,2013-03-17 20:19:00,
2013-03-17 16:24:00,37.1,10.6,30.10,NW,324,11.5,11.5,33,0.00,OVC,,0.00,WeatherDisplay:10.37,2013-03-17 20:24:00,
2013-03-17 16:29:00,37.1,10.6,30.10,NW,319,10.4,10.4,33,0.00,OVC,,0.00,WeatherDisplay:10.37,2013-03-17 20:29:00,
2013-03-17 16:34:00,37.2,10.7,30.10,NW,321,10.4,10.4,33,0.00,OVC,,0.00,WeatherDisplay:10.37,2013-03-17 20:34:00,
2013-03-17 16:39:00,37.3,10.1,30.11,NW,319,13.8,13.8,32,0.00,OVC,,0.00,WeatherDisplay:10.37,2013-03-17 20:39:00,
2013-03-17 16:44:00,37.4,10.2,30.11,North,355,12.7,12.7,32,0.00,OVC,,0.00,WeatherDisplay:10.37,2013-03-17 20:44:00,
2013-03-17 16:50:00,37.3,10.8,30.11,WNW,301,6.9,6.9,33,0.00,OVC,,0.00,WeatherDisplay:10.37,2013-03-17 20:50:00,
2013-03-17 16:55:00,37.6,11.0,30.11,NW,311,11.5,11.5,33,0.00,OVC,,0.00,WeatherDisplay:10.37,2013-03-17 20:55:00,
2013-03-17 17:00:00,37.2,9.3,30.11,NNW,331,11.5,11.5,31,0.00,OVC,,0.00,WeatherDisplay:10.37,2013-03-17 21:00:00,
2013-03-17 17:05:00,37.3,10.1,30.11,NW,319,8.0,8.0,32,0.00,OVC,,0.00,WeatherDisplay:10.37,2013-03-17 21:05:00,
2013-03-17 17:11:00,37.3,11.5,30.11,NNW,327,8.1,8.1,34,0.00,OVC,,0.00,WeatherDisplay:10.37,2013-03-17 21:11:00,
2013-03-17 17:16:00,37.4,10.2,30.12,NW,316,17.3,17.3,32,0.00,OVC,,0.00,WeatherDisplay:10.37,2013-03-17 21:16:00,
2013-03-17 17:21:00,37.4,9.5,30.12,NNW,331,11.5,11.5,31,0.00,OVC,,0.00,WeatherDisplay:10.37,2013-03-17 21:21:00,
2013-03-17 17:27:00,37.4,10.2,30.12,NW,311,11.5,11.5,32,0.00,OVC,,0.00,WeatherDisplay:10.37,2013-03-17 21:27:00,
2013-03-17 17:32:00,37.4,10.2,30.12,WNW,297,10.0,10.0,32,0.00,OVC,,0.00,WeatherDisplay:10.37,2013-03-17 21:32:00,
2013-03-17 17:37:00,37.4,10.2,30.13,WNW,298,6.0,6.0,32,0.00,OVC,,0.00,WeatherDisplay:10.37,2013-03-17 21:37:00,
2013-03-17 17:43:00,37.5,10.3,30.13,NW,311,9.0,9.0,32,0.00,OVC,,0.00,WeatherDisplay:10.37,2013-03-17 21:43:00,
2013-03-17 17:48:00,37.5,10.3,30.13,NNW,336,9.2,9.2,32,0.00,OVC,,0.00,WeatherDisplay:10.37,2013-03-17 21:48:00,
2013-03-17 17:53:00,37.5,9.6,30.13,NW,308,11.0,11.0,31,0.00,OVC,,0.00,WeatherDisplay:10.37,2013-03-17 21:53:00,
2013-03-17 17:58:00,37.4,8.7,30.13,WNW,300,19.6,19.6,30,0.00,OVC,,0.00,WeatherDisplay:10.37,2013-03-17 21:58:00,
2013-03-17 18:03:00,37.3,9.4,30.14,WNW,300,14.0,14.0,31,0.00,CLR,,0.00,WeatherDisplay:10.37,2013-03-17 22:03:00,
2013-03-17 18:09:00,37.1,8.5,30.14,West,276,16.1,16.1,30,0.00,CLR,,0.00,WeatherDisplay:10.37,2013-03-17 22:09:00,
2013-03-17 18:14:00,37.0,7.6,30.14,NW,304,18.4,18.4,29,0.00,CLR,,0.00,WeatherDisplay:10.37,2013-03-17 22:14:00,
2013-03-17 18:19:00,37.0,8.4,30.15,WNW,294,9.2,9.2,30,0.00,CLR,,0.00,WeatherDisplay:10.37,2013-03-17 22:19:00,
2013-03-17 18:24:00,36.9,9.0,30.15,WNW,291,3.5,3.5,31,0.00,CLR,,0.00,WeatherDisplay:10.37,2013-03-17 22:24:00,
2013-03-17 18:29:00,36.8,8.9,30.15,WNW,286,13.8,13.8,31,0.00,CLR,,0.00,WeatherDisplay:10.37,2013-03-17 22:29:00,
2013-03-17 18:35:00,36.7,8.9,30.16,WNW,298,13.8,13.8,31,0.00,CLR,,0.00,WeatherDisplay:10.37,2013-03-17 22:35:00,
2013-03-17 18:40:00,36.6,9.5,30.16,NW,304,6.9,6.9,32,0.00,CLR,,0.00,WeatherDisplay:10.37,2013-03-17 22:40:00,
2013-03-17 18:45:00,36.5,9.4,30.17,WNW,297,11.5,11.5,32,0.00,CLR,,0.00,WeatherDisplay:10.37,2013-03-17 22:45:00,
2013-03-17 18:50:00,36.4,8.6,30.16,WNW,292,9.2,9.2,31,0.00,CLR,,0.00,WeatherDisplay:10.37,2013-03-17 22:50:00,
2013-03-17 18:55:00,36.2,9.1,30.17,West,265,6.9,6.9,32,0.00,CLR,,0.00,WeatherDisplay:10.37,2013-03-17 22:55:00,
2013-03-17 19:00:00,36.1,9.0,30.17,WNW,296,13.0,13.0,32,0.00,CLR,,0.00,WeatherDisplay:10.37,2013-03-17 23:00:00,
2013-03-17 19:05:00,35.9,8.9,30.18,WNW,288,8.1,8.1,32,0.00,CLR,,0.00,WeatherDisplay:10.37,2013-03-17 23:05:00,
2013-03-17 19:10:00,35.9,8.9,30.18,NW,312,8.0,8.0,32,0.00,CLR,,0.00,WeatherDisplay:10.37,2013-03-17 23:10:00,
2013-03-17 19:16:00,35.7,8.7,30.19,WNW,300,13.8,13.8,32,0.00,CLR,,0.00,WeatherDisplay:10.37,2013-03-17 23:16:00,
2013-03-17 19:21:00,35.6,8.6,30.19,WNW,300,6.9,6.9,32,0.00,CLR,,0.00,WeatherDisplay:10.37,2013-03-17 23:21:00,
2013-03-17 19:26:00,35.6,8.6,30.19,NW,326,11.5,11.5,32,0.00,CLR,,0.00,WeatherDisplay:10.37,2013-03-17 23:26:00,
2013-03-17 19:31:00,35.5,8.5,30.20,WNW,294,9.2,9.2,32,0.00,CLR,,0.00,WeatherDisplay:10.37,2013-03-17 23:31:00,
2013-03-17 19:36:00,35.4,8.4,30.20,West,279,5.8,5.8,32,0.00,CLR,,0.00,WeatherDisplay:10.37,2013-03-17 23:36:00,
2013-03-17 19:41:00,35.3,9.0,30.21,WNW,302,8.1,8.1,33,0.00,CLR,,0.00,WeatherDisplay:10.37,2013-03-17 23:41:00,
2013-03-17 19:47:00,35.2,8.9,30.21,West,278,6.9,6.9,33,0.00,CLR,,0.00,WeatherDisplay:10.37,2013-03-17 23:47:00,
2013-03-17 19:52:00,35.1,8.8,30.21,West,271,6.0,6.0,33,0.00,CLR,,0.00,WeatherDisplay:10.37,2013-03-17 23:52:00,
2013-03-17 19:57:00,35.0,8.7,30.21,WNW,289,8.1,8.1,33,0.00,CLR,,0.00,WeatherDisplay:10.37,2013-03-17 23:57:00,
2013-03-17 20:03:00,34.9,8.7,30.21,West,279,5.8,5.8,33,0.00,CLR,,0.00,WeatherDisplay:10.37,2013-03-18 00:03:00,
2013-03-17 20:08:00,34.8,9.2,30.22,WNW,294,9.2,9.2,34,0.00,CLR,,0.00,WeatherDisplay:10.37,2013-03-18 00:08:00,
2013-03-17 20:13:00,34.7,9.1,30.22,WNW,292,8.1,8.1,34,0.00,CLR,,0.00,WeatherDisplay:10.37,2013-03-18 00:13:00,
2013-03-17 20:18:00,34.7,9.8,30.22,NW,313,6.9,6.9,35,0.00,CLR,,0.00,WeatherDisplay:10.37,2013-03-18 00:18:00,
2013-03-17 20:23:00,34.6,9.7,30.23,NW,313,5.8,5.8,35,0.00,CLR,,0.00,WeatherDisplay:10.37,2013-03-18 00:23:00,
2013-03-17 20:28:00,34.6,9.7,30.23,WNW,299,6.9,6.9,35,0.00,CLR,,0.00,WeatherDisplay:10.37,2013-03-18 00:28:00,
2013-03-17 20:34:00,34.5,9.6,30.23,NW,309,8.1,8.1,35,0.00,CLR,,0.00,WeatherDisplay:10.37,2013-03-18 00:34:00,
2013-03-17 20:39:00,34.4,9.5,30.23,WNW,290,5.8,5.8,35,0.00,CLR,,0.00,WeatherDisplay:10.37,2013-03-18 00:39:00,
2013-03-17 20:44:00,34.4,10.2,30.23,NW,306,3.5,3.5,36,0.00,CLR,,0.00,WeatherDisplay:10.37,2013-03-18 00:44:00,
2013-03-17 20:49:00,34.3,10.1,30.24,NW,323,7.0,7.0,36,0.00,CLR,,0.00,WeatherDisplay:10.37,2013-03-18 00:49:00,
2013-03-17 20:54:00,34.2,10.0,30.24,NW,306,5.8,5.8,36,0.00,CLR,,0.00,WeatherDisplay:10.37,2013-03-18 00:54:00,
2013-03-17 20:59:00,34.1,9.9,30.24,WNW,292,6.9,6.9,36,0.00,CLR,,0.00,WeatherDisplay:10.37,2013-03-18 00:59:00,
2013-03-17 21:04:00,34.1,10.5,30.24,WNW,297,5.0,5.0,37,0.00,CLR,,0.00,WeatherDisplay:10.37,2013-03-18 01:04:00,
2013-03-17 21:09:00,34.0,10.4,30.24,WNW,284,6.9,6.9,37,0.00,CLR,,0.00,WeatherDisplay:10.37,2013-03-18 01:09:00,
2013-03-17 21:14:00,33.9,10.3,30.25,WNW,294,4.0,4.0,37,0.00,CLR,,0.00,WeatherDisplay:10.37,2013-03-18 01:14:00,
2013-03-17 21:20:00,33.8,11.4,30.25,WNW,289,3.5,3.5,39,0.00,CLR,,0.00,WeatherDisplay:10.37,2013-03-18 01:20:00,
2013-03-17 21:25:00,33.7,10.7,30.25,NW,315,3.5,3.5,38,0.00,CLR,,0.00,WeatherDisplay:10.37,2013-03-18 01:25:00,
2013-03-17 21:30:00,33.6,10.1,30.25,WNW,297,3.5,3.5,37,0.00,CLR,,0.00,WeatherDisplay:10.37,2013-03-18 01:30:00,
2013-03-17 21:35:00,33.5,11.2,30.25,WNW,292,5.8,5.8,39,0.00,CLR,,0.00,WeatherDisplay:10.37,2013-03-18 01:35:00,
2013-03-17 21:40:00,33.4,10.5,30.25,WNW,294,3.5,3.5,38,0.00,CLR,,0.00,WeatherDisplay:10.37,2013-03-18 01:40:00,
2013-03-17 21:45:00,33.4,10.5,30.26,WNW,282,3.5,3.5,38,0.00,CLR,,0.00,WeatherDisplay:10.37,2013-03-18 01:45:00,
2013-03-17 21:50:00,33.4,11.6,30.26,WNW,289,3.5,3.5,40,0.00,CLR,,0.00,WeatherDisplay:10.37,2013-03-18 01:50:00,
2013-03-17 21:56:00,33.3,10.4,30.27,WNW,286,3.5,3.5,38,0.00,CLR,,0.00,WeatherDisplay:10.37,2013-03-18 01:56:00,
2013-03-17 22:01:00,33.2,10.9,30.27,WNW,286,3.5,3.5,39,0.00,CLR,,0.00,WeatherDisplay:10.37,2013-03-18 02:01:00,
2013-03-17 22:07:00,32.9,10.6,30.27,WNW,292,3.5,3.5,39,0.00,CLR,,0.00,WeatherDisplay:10.37,2013-03-18 02:07:00,
2013-03-17 22:12:00,32.9,11.2,30.27,WNW,302,3.5,3.5,40,0.00,CLR,,0.00,WeatherDisplay:10.37,2013-03-18 02:12:00,
2013-03-17 22:17:00,32.9,11.2,30.28,WNW,292,4.0,4.0,40,0.00,CLR,,0.00,WeatherDisplay:10.37,2013-03-18 02:17:00,
2013-03-17 22:22:00,32.9,11.2,30.28,NW,304,3.5,3.5,40,0.00,CLR,,0.00,WeatherDisplay:10.37,2013-03-18 02:22:00,
2013-03-17 22:27:00,32.9,11.2,30.28,WNW,292,3.5,3.5,40,0.00,CLR,,0.00,WeatherDisplay:10.37,2013-03-18 02:27:00,
2013-03-17 22:32:00,32.8,11.6,30.28,NW,304,3.5,3.5,41,0.00,CLR,,0.00,WeatherDisplay:10.37,2013-03-18 02:32:00,
2013-03-17 22:38:00,32.6,11.5,30.28,WNW,284,5.8,5.8,41,0.00,CLR,,0.00,WeatherDisplay:10.37,2013-03-18 02:38:00,
2013-03-17 22:43:00,32.6,11.5,30.29,WNW,296,3.5,3.5,41,0.00,CLR,,0.00,WeatherDisplay:10.37,2013-03-18 02:43:00,
2013-03-17 22:48:00,32.5,11.9,30.29,WNW,299,1.0,1.4,42,0.00,CLR,,0.00,WeatherDisplay:10.37,2013-03-18 02:48:00,
2013-03-17 22:53:00,32.4,11.8,30.29,WNW,298,3.5,3.5,42,0.00,CLR,,0.00,WeatherDisplay:10.37,2013-03-18 02:53:00,
2013-03-17 22:58:00,32.3,11.7,30.29,West,281,5.8,5.8,42,0.00,CLR,,0.00,WeatherDisplay:10.37,2013-03-18 02:58:00,
2013-03-17 23:03:00,32.2,12.2,30.29,NW,312,4.6,4.6,43,0.00,CLR,,0.00,WeatherDisplay:10.37,2013-03-18 03:03:00,
2013-03-17 23:08:00,32.1,12.6,30.30,WNW,295,4.6,4.6,44,0.00,CLR,,0.00,WeatherDisplay:10.37,2013-03-18 03:08:00,
2013-03-17 23:13:00,32.1,12.6,30.30,NW,306,3.5,3.5,44,0.00,CLR,,0.00,WeatherDisplay:10.37,2013-03-18 03:13:00,
2013-03-17 23:18:00,32.0,12.5,30.30,WNW,301,5.8,5.8,44,0.00,CLR,,0.00,WeatherDisplay:10.37,2013-03-18 03:18:00,
2013-03-17 23:23:00,32.0,12.0,30.30,NW,313,4.0,4.0,43,0.00,CLR,,0.00,WeatherDisplay:10.37,2013-03-18 03:23:00,
2013-03-17 23:28:00,31.8,12.3,30.30,NW,309,3.0,3.0,44,0.00,CLR,,0.00,WeatherDisplay:10.37,2013-03-18 03:28:00,
2013-03-17 23:33:00,31.8,11.8,30.30,WNW,295,4.6,4.6,43,0.00,CLR,,0.00,WeatherDisplay:10.37,2013-03-18 03:33:00,
2013-03-17 23:38:00,31.7,12.2,30.30,WNW,296,3.5,3.5,44,0.00,CLR,,0.00,WeatherDisplay:10.37,2013-03-18 03:38:00,
2013-03-17 23:44:00,31.6,12.2,30.30,WNW,294,4.6,4.6,44,0.00,CLR,,0.00,WeatherDisplay:10.37,2013-03-18 03:44:00,
2013-03-17 23:49:00,31.4,12.0,30.30,WNW,294,3.5,3.5,44,0.00,CLR,,0.00,WeatherDisplay:10.37,2013-03-18 03:49:00,
2013-03-17 23:54:00,31.5,12.1,30.30,WNW,287,5.8,5.8,44,0.00,CLR,,0.00,WeatherDisplay:10.37,2013-03-18 03:54:00,
2013-03-17 23:59:00,31.5,12.1,30.30,WNW,286,3.5,3.5,44,0.00,CLR,,0.00,WeatherDisplay:10.37,2013-03-18 03:59:00,